createdAt,value
2023-10-24T00:00:26.013Z,13.02
2023-10-24T00:03:27.373Z,12.63
2023-10-24T00:06:28.735Z,15.23
2023-10-24T00:09:30.056Z,14.52
2023-10-24T00:12:31.635Z,14.20
2023-10-24T00:15:32.984Z,13.57
2023-10-24T00:18:34.294Z,11.95
2023-10-24T00:21:35.647Z,12.75
2023-10-24T00:24:36.916Z,11.85
2023-10-24T00:27:38.270Z,11.30
2023-10-24T00:30:40.357Z,8.25
2023-10-24T00:33:42.243Z,11.18
2023-10-24T00:36:44.819Z,10.85
2023-10-24T00:39:46.147Z,9.15
2023-10-24T00:42:47.788Z,9.10
2023-10-24T00:45:49.242Z,9.40
2023-10-24T00:48:50.835Z,8.55
2023-10-24T00:51:53.432Z,8.00
2023-10-24T00:54:54.903Z,11.90
2023-10-24T00:57:56.540Z,11.35
2023-10-24T01:00:58.541Z,8.13
2023-10-24T01:03:59.970Z,10.88
2023-10-24T01:07:01.463Z,11.63
2023-10-24T01:10:02.821Z,10.80
2023-10-24T01:13:04.477Z,10.63
2023-10-24T01:16:05.828Z,10.15
2023-10-24T01:19:07.287Z,13.57
2023-10-24T01:22:08.580Z,10.98
2023-10-24T01:25:13.160Z,10.10
2023-10-24T01:28:15.596Z,11.32
2023-10-24T01:31:17.103Z,11.50
2023-10-24T01:34:18.575Z,11.38
2023-10-24T01:37:19.929Z,12.65
2023-10-24T01:40:21.415Z,13.20
2023-10-24T01:43:22.807Z,11.07
2023-10-24T01:46:24.252Z,10.20
2023-10-24T01:49:25.686Z,10.82
2023-10-24T01:52:27.045Z,12.00
2023-10-24T01:55:28.374Z,10.45
2023-10-24T01:58:29.920Z,10.43
2023-10-24T02:01:31.430Z,10.65
2023-10-24T02:04:32.941Z,12.38
2023-10-24T02:07:34.332Z,12.45
2023-10-24T02:10:35.659Z,18.02
2023-10-24T02:13:37.012Z,11.13
2023-10-24T02:16:38.419Z,9.98
2023-10-24T02:19:39.835Z,9.25
2023-10-24T02:22:41.270Z,10.88
2023-10-24T02:25:42.894Z,10.35
2023-10-24T02:28:44.357Z,11.63
2023-10-24T02:31:45.817Z,13.30
2023-10-24T02:34:50.681Z,11.23
2023-10-24T02:37:52.033Z,10.38
2023-10-24T02:40:53.740Z,12.60
2023-10-24T02:43:55.385Z,12.68
2023-10-24T02:46:56.804Z,12.15
2023-10-24T02:49:58.142Z,11.23
2023-10-24T02:53:01.144Z,12.00
2023-10-24T02:56:03.788Z,11.80
2023-10-24T02:59:05.511Z,15.00
2023-10-24T03:02:06.915Z,10.70
2023-10-24T03:05:08.507Z,11.60
2023-10-24T03:08:10.064Z,14.75
2023-10-24T03:11:11.475Z,13.45
2023-10-24T03:14:12.767Z,9.70
2023-10-24T03:17:14.160Z,10.32
2023-10-24T03:20:15.830Z,13.05
2023-10-24T03:23:17.159Z,13.90
2023-10-24T03:26:18.810Z,13.30
2023-10-24T03:29:20.113Z,11.45
2023-10-24T03:32:21.454Z,11.23
2023-10-24T03:35:22.762Z,9.88
2023-10-24T03:38:24.479Z,13.18
2023-10-24T03:41:25.767Z,10.00
2023-10-24T03:44:27.045Z,12.48
2023-10-24T03:47:28.418Z,10.82
2023-10-24T03:50:29.734Z,11.55
2023-10-24T03:53:31.014Z,13.05
2023-10-24T03:56:32.927Z,9.95
2023-10-24T03:59:34.279Z,10.88
2023-10-24T04:02:36.060Z,10.05
2023-10-24T04:05:37.661Z,11.27
2023-10-24T04:08:39.660Z,12.30
2023-10-24T04:11:40.987Z,13.90
2023-10-24T04:14:42.539Z,12.10
2023-10-24T04:17:44.153Z,11.50
2023-10-24T04:20:45.656Z,14.98
2023-10-24T04:23:47.057Z,10.38
2023-10-24T04:26:48.419Z,10.07
2023-10-24T04:29:49.814Z,13.27
2023-10-24T04:32:51.188Z,10.23
2023-10-24T04:35:52.776Z,8.90
2023-10-24T04:38:54.177Z,10.68
2023-10-24T04:41:55.486Z,10.80
2023-10-24T04:44:56.873Z,10.55
2023-10-24T04:47:58.312Z,13.15
2023-10-24T04:50:59.687Z,10.05
2023-10-24T04:54:00.987Z,10.20
2023-10-24T04:57:02.308Z,12.27
2023-10-24T05:00:04.729Z,12.73
2023-10-24T05:03:06.250Z,12.25
2023-10-24T05:06:07.702Z,11.27
2023-10-24T05:09:09.642Z,12.38
2023-10-24T05:12:10.962Z,12.52
2023-10-24T05:15:12.310Z,11.98
2023-10-24T05:18:13.920Z,11.00
2023-10-24T05:21:15.192Z,11.00
2023-10-24T05:24:16.735Z,11.07
2023-10-24T05:27:18.488Z,11.75
2023-10-24T05:30:19.906Z,12.23
2023-10-24T05:33:21.201Z,14.10
2023-10-24T05:36:22.528Z,17.25
2023-10-24T05:39:25.350Z,14.35
2023-10-24T05:42:26.668Z,12.63
2023-10-24T05:45:28.037Z,12.48
2023-10-24T05:48:29.433Z,12.18
2023-10-24T05:51:31.129Z,14.38
2023-10-24T05:54:32.742Z,12.32
2023-10-24T05:57:35.932Z,11.13
2023-10-24T06:00:37.308Z,12.15
2023-10-24T06:03:38.638Z,12.63
2023-10-24T06:06:39.937Z,12.93
2023-10-24T06:09:41.404Z,13.02
2023-10-24T06:12:42.678Z,15.32
2023-10-24T06:15:43.993Z,12.70
2023-10-24T06:18:45.314Z,14.15
2023-10-24T06:21:46.601Z,14.52
2023-10-24T06:24:47.887Z,15.40
2023-10-24T06:27:49.246Z,15.95
2023-10-24T06:30:58.327Z,13.25
2023-10-24T06:34:00.864Z,14.35
2023-10-24T06:37:02.193Z,14.80
2023-10-24T06:40:04.399Z,16.42
2023-10-24T06:43:06.508Z,14.75
2023-10-24T06:46:07.839Z,13.50
2023-10-24T06:49:09.500Z,14.10
2023-10-24T06:52:11.255Z,14.07
2023-10-24T06:55:12.564Z,12.00
2023-10-24T06:58:13.994Z,13.65
2023-10-24T07:01:15.345Z,14.43
2023-10-24T07:04:16.674Z,12.43
2023-10-24T07:07:17.999Z,13.73
2023-10-24T07:10:21.414Z,12.73
2023-10-24T07:13:22.974Z,13.15
2023-10-24T07:16:24.321Z,14.25
2023-10-24T07:19:25.789Z,14.15
2023-10-24T07:22:27.779Z,14.88
2023-10-24T07:25:29.263Z,12.57
2023-10-24T07:28:30.904Z,12.38
2023-10-24T07:31:32.323Z,16.75
2023-10-24T07:34:37.660Z,14.88
2023-10-24T07:37:39.080Z,16.50
2023-10-24T07:40:40.763Z,17.33
2023-10-24T07:43:42.206Z,15.88
2023-10-24T07:46:43.683Z,16.08
2023-10-24T07:49:45.129Z,14.82
2023-10-24T07:52:46.605Z,15.40
2023-10-24T07:55:48.018Z,16.30
2023-10-24T07:58:49.505Z,16.23
2023-10-24T08:01:50.929Z,21.08
2023-10-24T08:04:52.609Z,37.50
2023-10-24T08:07:54.161Z,30.23
2023-10-24T08:10:55.548Z,26.15
2023-10-24T08:13:57.040Z,22.35
2023-10-24T08:16:59.412Z,22.38
2023-10-24T08:20:01.011Z,22.05
2023-10-24T08:23:02.315Z,15.77
2023-10-24T08:26:04.373Z,16.67
2023-10-24T08:29:05.686Z,18.83
2023-10-24T08:32:12.925Z,14.93
2023-10-24T08:35:15.796Z,20.30
2023-10-24T08:38:17.090Z,15.63
2023-10-24T08:41:20.960Z,16.63
2023-10-24T08:44:22.413Z,16.40
2023-10-24T08:47:24.210Z,17.55
2023-10-24T08:50:25.646Z,18.55
2023-10-24T08:53:27.816Z,19.75
2023-10-24T08:56:29.202Z,16.17
2023-10-24T08:59:33.689Z,17.83
2023-10-24T09:02:35.275Z,19.00
2023-10-24T09:05:37.306Z,17.67
2023-10-24T09:08:38.632Z,18.85
2023-10-24T09:11:54.270Z,17.52
2023-10-24T09:14:55.584Z,17.70
2023-10-24T09:17:57.842Z,17.38
2023-10-24T09:20:59.356Z,16.40
2023-10-24T09:24:05.849Z,19.25
2023-10-24T09:27:07.184Z,20.85
2023-10-24T09:30:14.924Z,18.73
2023-10-24T09:33:16.366Z,22.00
2023-10-24T09:36:24.207Z,18.45
2023-10-24T09:39:25.516Z,15.23
2023-10-24T09:42:31.328Z,14.90
2023-10-24T09:45:34.229Z,18.92
2023-10-24T09:48:36.564Z,16.38
2023-10-24T09:51:37.984Z,13.90
2023-10-24T09:54:41.406Z,20.60
2023-10-24T09:57:45.456Z,14.95
2023-10-24T10:00:48.504Z,17.83
2023-10-24T10:03:51.581Z,16.27
2023-10-24T10:06:59.676Z,12.57
2023-10-24T10:10:03.122Z,17.63
2023-10-24T10:13:21.823Z,11.75
2023-10-24T10:16:41.966Z,15.63
2023-10-24T10:20:19.002Z,12.98
2023-10-24T10:23:40.154Z,18.17
2023-10-24T10:26:44.368Z,14.00
2023-10-24T10:29:52.838Z,11.52
2023-10-24T10:33:06.156Z,13.70
2023-10-24T10:36:10.037Z,13.70
2023-10-24T10:39:11.902Z,13.20
2023-10-24T10:42:33.597Z,14.25
2023-10-24T10:45:35.036Z,13.82
2023-10-24T10:48:37.217Z,12.50
2023-10-24T10:51:38.521Z,14.43
2023-10-24T10:54:53.172Z,12.02
2023-10-24T10:58:12.231Z,13.70
2023-10-24T11:01:17.521Z,11.98
2023-10-24T11:04:18.932Z,12.90
2023-10-24T11:07:40.196Z,13.80
2023-10-24T11:10:52.726Z,14.52
2023-10-24T11:14:12.949Z,11.70
2023-10-24T11:17:16.529Z,11.45
2023-10-24T11:20:23.681Z,13.88
2023-10-24T11:23:26.607Z,12.70
2023-10-24T11:26:27.999Z,13.98
2023-10-24T11:29:29.339Z,13.15
2023-10-24T11:32:30.735Z,13.30
2023-10-24T11:35:32.262Z,14.70
2023-10-24T11:38:34.185Z,13.30
2023-10-24T11:41:36.030Z,12.85
2023-10-24T11:44:37.355Z,12.82
2023-10-24T11:47:38.724Z,12.15
2023-10-24T11:50:41.227Z,10.77
2023-10-24T11:53:42.697Z,13.55
2023-10-24T11:56:44.698Z,11.10
2023-10-24T11:59:47.811Z,11.93
2023-10-24T12:02:49.273Z,15.23
2023-10-24T12:05:53.898Z,14.63
2023-10-24T12:08:55.547Z,16.40
2023-10-24T12:11:57.528Z,17.60
2023-10-24T12:14:58.877Z,17.60
2023-10-24T12:18:09.047Z,15.93
2023-10-24T12:21:10.980Z,14.70
2023-10-24T12:24:13.855Z,15.27
2023-10-24T12:27:15.175Z,14.80
2023-10-24T12:30:16.685Z,13.02
2023-10-24T12:33:18.398Z,13.52
2023-10-24T12:36:21.668Z,16.02
2023-10-24T12:39:23.053Z,14.70
2023-10-24T12:42:24.545Z,15.55
2023-10-24T12:45:25.846Z,16.00
2023-10-24T12:48:27.169Z,13.93
2023-10-24T12:51:28.754Z,13.80
2023-10-24T12:54:30.063Z,13.88
2023-10-24T12:57:31.395Z,12.93
2023-10-24T13:00:33.011Z,15.30
2023-10-24T13:03:34.655Z,13.75
2023-10-24T13:06:36.204Z,13.98
2023-10-24T13:09:40.423Z,15.13
2023-10-24T13:12:41.990Z,14.93
2023-10-24T13:15:43.357Z,13.95
2023-10-24T13:18:44.708Z,12.05
2023-10-24T13:21:46.081Z,12.30
2023-10-24T13:24:47.394Z,13.25
2023-10-24T13:27:48.778Z,12.57
2023-10-24T13:31:07.090Z,12.32
2023-10-24T13:37:16.828Z,9.15
2023-10-24T13:40:18.239Z,9.50
2023-10-24T13:43:19.519Z,9.48
2023-10-24T13:46:20.846Z,10.45
2023-10-24T13:49:22.146Z,11.23
2023-10-24T13:52:23.453Z,12.50
2023-10-24T13:55:24.763Z,12.73
2023-10-24T13:58:26.297Z,11.98
2023-10-24T14:01:29.440Z,9.40
2023-10-24T14:04:30.874Z,10.40
2023-10-24T14:07:32.636Z,11.05
2023-10-24T14:10:34.070Z,10.40
2023-10-24T14:13:35.456Z,10.50
2023-10-24T14:16:36.754Z,8.05
2023-10-24T14:19:38.148Z,9.45
2023-10-24T14:22:39.778Z,8.60
2023-10-24T14:25:42.134Z,9.70
2023-10-24T14:28:43.495Z,7.68
2023-10-24T14:31:47.962Z,8.27
2023-10-24T14:34:51.411Z,8.77
2023-10-24T14:37:52.916Z,9.00
2023-10-24T14:40:54.417Z,9.95
2023-10-24T14:43:55.758Z,10.23
2023-10-24T14:46:57.249Z,8.98
2023-10-24T14:50:00.724Z,8.80
2023-10-24T14:53:02.154Z,10.38
2023-10-24T14:56:03.668Z,10.60
2023-10-24T14:59:05.295Z,10.10
2023-10-24T15:02:09.555Z,14.68
2023-10-24T15:05:11.270Z,14.27
2023-10-24T15:08:12.747Z,11.48
2023-10-24T15:11:14.098Z,13.95
2023-10-24T15:14:15.526Z,12.48
2023-10-24T15:17:17.059Z,13.60
2023-10-24T15:20:18.501Z,12.73
2023-10-24T15:23:19.957Z,9.85
2023-10-24T15:26:21.234Z,10.93
2023-10-24T15:29:22.574Z,9.02
2023-10-24T15:32:30.438Z,5.60
2023-10-24T15:35:31.902Z,6.72
2023-10-24T15:38:33.297Z,9.15
2023-10-24T15:41:34.680Z,7.32
2023-10-24T15:44:36.762Z,5.63
2023-10-24T15:47:41.618Z,5.22
2023-10-24T15:50:42.958Z,4.97
2023-10-24T15:53:44.458Z,4.97
2023-10-24T15:56:45.739Z,6.20
2023-10-24T15:59:47.090Z,9.00
2023-10-24T16:02:48.526Z,8.48
2023-10-24T16:05:50.480Z,7.43
2023-10-24T16:08:51.786Z,8.13
2023-10-24T16:11:53.282Z,5.05
2023-10-24T16:14:54.622Z,8.63
2023-10-24T16:17:56.004Z,10.55
2023-10-24T16:21:01.558Z,7.05
2023-10-24T16:24:03.882Z,7.55
2023-10-24T16:27:06.824Z,7.95
2023-10-24T16:30:08.371Z,5.97
2023-10-24T16:33:09.913Z,7.63
2023-10-24T16:36:11.330Z,5.18
2023-10-24T16:39:15.376Z,7.30
2023-10-24T16:42:18.097Z,7.47
2023-10-24T16:45:19.465Z,5.30
2023-10-24T16:48:21.749Z,4.65
2023-10-24T16:51:23.150Z,4.95
2023-10-24T16:54:24.561Z,6.10
2023-10-24T16:57:25.950Z,6.75
2023-10-24T17:00:27.332Z,6.05
2023-10-24T17:03:28.821Z,7.88
2023-10-24T17:06:30.199Z,7.55
2023-10-24T17:09:31.819Z,5.38
2023-10-24T17:12:34.665Z,6.28
2023-10-24T17:15:36.336Z,5.50
2023-10-24T17:18:37.693Z,5.35
2023-10-24T17:21:39.030Z,5.30
2023-10-24T17:24:40.536Z,4.93
2023-10-24T17:27:45.953Z,5.28
2023-10-24T17:30:47.700Z,5.60
2023-10-24T17:33:49.055Z,7.90
2023-10-24T17:36:50.347Z,7.47
2023-10-24T17:39:52.958Z,7.00
2023-10-24T17:42:55.425Z,8.30
2023-10-24T17:45:58.936Z,12.65
2023-10-24T17:49:00.225Z,17.77
2023-10-24T17:52:01.659Z,12.57
2023-10-24T17:55:03.455Z,8.45
2023-10-24T17:58:05.277Z,8.98
2023-10-24T18:01:13.875Z,8.60
2023-10-24T18:04:15.248Z,6.70
2023-10-24T18:10:21.497Z,4.70
2023-10-24T18:13:22.935Z,5.60
2023-10-24T18:16:24.247Z,6.75
2023-10-24T18:19:25.750Z,7.70
2023-10-24T18:22:27.033Z,5.50
2023-10-24T18:25:28.402Z,5.95
2023-10-24T18:28:31.225Z,6.47
2023-10-24T18:31:32.592Z,5.18
2023-10-24T18:34:34.065Z,5.50
2023-10-24T18:37:35.558Z,7.10
2023-10-24T18:40:37.737Z,8.25
2023-10-24T18:43:39.477Z,4.57
2023-10-24T18:46:44.045Z,5.68
2023-10-24T18:52:46.725Z,5.60
2023-10-24T18:55:48.080Z,4.55
2023-10-24T18:58:49.490Z,6.38
2023-10-24T19:01:50.911Z,4.50
2023-10-24T19:04:52.428Z,6.20
2023-10-24T19:07:53.861Z,7.05
2023-10-24T19:10:56.779Z,5.43
2023-10-24T19:17:00.049Z,8.07
2023-10-24T19:20:01.548Z,8.02
2023-10-24T19:23:06.443Z,9.55
2023-10-24T19:26:10.966Z,7.40
2023-10-24T19:29:12.397Z,7.47
2023-10-24T19:32:13.971Z,9.23
2023-10-24T19:35:15.408Z,11.55
2023-10-24T19:38:18.737Z,8.65
2023-10-24T19:41:20.173Z,10.68
2023-10-24T19:44:21.663Z,7.82
2023-10-24T19:47:24.012Z,7.78
2023-10-24T19:50:25.548Z,6.93
2023-10-24T19:53:27.174Z,9.30
2023-10-24T19:56:29.192Z,9.32
2023-10-24T19:59:31.700Z,12.10
2023-10-24T20:02:33.372Z,10.68
2023-10-24T20:05:35.103Z,8.75
2023-10-24T20:08:36.743Z,9.38
2023-10-24T20:12:36.341Z,8.25
2023-10-24T20:15:00.322Z,9.90
2023-10-24T20:18:01.978Z,10.07
2023-10-24T20:21:03.587Z,9.35
2023-10-24T20:24:05.345Z,9.13
2023-10-24T20:27:06.861Z,12.50
2023-10-24T20:30:08.830Z,10.38
2023-10-24T20:33:10.217Z,12.23
2023-10-24T20:36:11.778Z,11.98
2023-10-24T20:39:14.950Z,13.35
2023-10-24T20:42:20.500Z,13.57
2023-10-24T20:45:21.907Z,13.95
2023-10-24T20:48:24.784Z,11.10
2023-10-24T20:51:26.167Z,12.60
2023-10-24T20:54:27.565Z,12.35
2023-10-24T20:57:28.958Z,14.82
2023-10-24T21:00:30.553Z,15.15
2023-10-24T21:03:31.939Z,13.90
2023-10-24T21:06:33.371Z,13.25
2023-10-24T21:09:35.273Z,15.13
2023-10-24T21:12:36.685Z,12.35
2023-10-24T21:15:38.135Z,12.57
2023-10-24T21:18:39.756Z,12.55
2023-10-24T21:21:42.569Z,12.88
2023-10-24T21:24:43.944Z,13.95
2023-10-24T21:27:45.282Z,17.15
2023-10-24T21:30:46.762Z,14.43
2023-10-24T21:33:48.280Z,12.82
2023-10-24T21:36:49.927Z,13.48
2023-10-24T21:39:51.582Z,14.80
2023-10-24T21:42:53.322Z,17.05
2023-10-24T21:46:03.740Z,16.73
2023-10-24T21:49:05.352Z,17.10
2023-10-24T21:52:06.834Z,19.35
2023-10-24T21:55:09.343Z,16.05
2023-10-24T21:58:10.735Z,16.92
2023-10-24T22:01:16.490Z,16.10
2023-10-24T22:04:19.068Z,16.20
2023-10-24T22:07:20.449Z,17.98
2023-10-24T22:10:22.469Z,14.82
2023-10-24T22:13:23.776Z,16.30
2023-10-24T22:16:25.169Z,14.35
2023-10-24T22:19:26.540Z,16.75
2023-10-24T22:22:28.021Z,16.85
2023-10-24T22:25:29.330Z,16.63
2023-10-24T22:28:30.811Z,19.17
2023-10-24T22:31:32.491Z,18.85
2023-10-24T22:34:33.906Z,18.77
2023-10-24T22:37:35.224Z,19.77
2023-10-24T22:40:36.555Z,24.55
2023-10-24T22:43:37.993Z,26.52
2023-10-24T22:46:39.500Z,25.67
2023-10-24T22:49:41.200Z,33.55
2023-10-24T22:52:43.919Z,32.13
2023-10-24T22:55:45.333Z,41.03
2023-10-24T22:58:46.674Z,37.90
2023-10-24T23:01:48.207Z,49.20
2023-10-24T23:04:49.757Z,35.00
2023-10-24T23:07:51.069Z,40.60
2023-10-24T23:10:52.372Z,45.10
2023-10-24T23:13:53.848Z,41.08
2023-10-24T23:16:55.256Z,31.35
2023-10-24T23:19:57.096Z,36.63
2023-10-24T23:22:58.421Z,44.42
2023-10-24T23:25:59.790Z,45.22
2023-10-24T23:29:01.121Z,40.50
2023-10-24T23:32:02.462Z,36.60
2023-10-24T23:35:04.113Z,43.15
2023-10-24T23:38:05.423Z,35.33
2023-10-24T23:41:06.779Z,39.00
2023-10-24T23:44:08.295Z,40.60
2023-10-24T23:47:09.973Z,37.20
2023-10-24T23:50:11.367Z,42.13
2023-10-24T23:53:12.745Z,33.97
2023-10-24T23:56:14.048Z,33.65
2023-10-24T23:59:15.381Z,35.20
